18:40
Airports
History
Links
Donate
Help keep this website running!
PayPal
Bitcoin
This page is community maintained. The information is intended for PC simulator navigation or reference.
Always use approved charts for navigation.
SWBS
Brasileia
Brasileia (SWBS)
Epitaciolândia, Acre, Brazil (69934)
(C)
Lat/Lng:11° 1' 0" S / 68° 44' 1.99" W
-11.016667 / -68.733887
Elevation:489'ft / 149mMSL
ID / ICAO:SWBS
Runways:1
Longest:12-30
Concrete 998m / 3,274ft
Controlled:Yes
Nearby Weather18:00 GMT 2018-02-21
Nearby weather at SLCO, HEROES DEL ACRE located 3.7 nautical miles from SWBS
Altimeter: 29.80
Visibility: 6.2 statute miles
Wind: 10 knots (from 320°)
Temp: 30°c / 86°f
Humidity: 70.3%

METAR: SLCO 211800Z 32010KT 9999 FEW025 BKN080 30/24 Q1009

(Powered by phpweather)
Runway 12 / 30
Dimensions:997.8 x 14.3m 3274' x 47'ft
Surface:Concrete
Edge Lights:Medium intensity
Runway 12 [A]Runway 30 [B]
Heading:114°TH 294°TH
Lat:
Lng:
11° 0' 53.16"S
68° 44' 16.94"W
11° 1' 6.85"S
68° 43' 47.04"W
ALS:MALSMALS
User Notes and Comments
11° 1' 0" S / 68° 44' 1.99" W
Distance To
Airport ID:
Nearby Airports
(C) HEROES DEL ACRE 3.7 NM
SLCO ( WX ) WSW 243°
(C) Xapuri 29.6 NM
SWXU NE 34°
(C) IBERIA 58.0 NM
SPBR WSW 241°
(C) Alerta 61.4 NM
SPAR SW 221°
(C) Shiringayoc O Hda Mejia 67.7 NM
SPOV SSW 205°
4 Seringal Nova Olinda 70.9 NM
SWSX NNW 332°
(C) Presidente Medici 97.7 NM
SBRB ( WX ) NE 35°
VFR Chart
Flight Planning at SkyVector.com